Etusivu
METAR-TAF:

METAR-TAF

Lentoasemat :

Gaines County Airport

Seminole, Texas, Yhdysvallat

Leveyspiiri: 32-40-31N, Pituuspiiri: 102-39-09W, korkeus merenpinnasta: 1010 m

Tämänhetkinen sää

Tämä raportti tehtiin 36 minuuttia sitten, kello 22.35 UTC
Tuuli 7 kn etelästä/kaakosta
Lämpötila 34°C
Kosteus 25%
Ilmanpaine 1019 hPa
Näkyvyys: 16.1 km
selkeää

METAR: KGNC 222235Z AUTO 16007KT 10SM CLR 34/11 A3009 RMK AO2 T03420111

Aika: 18:11 (23:11 UTC)


TAF: puuttuu

Säähavainnot ja -ennusteet yli 4000 lentoasemalta (METAR- ja TAF-raportit).

Käytössä olevat sääasemat on merkitty karttaan keltaisilla ja punaisilla pisteillä.

Aseta hiiri pisteen päälle nähdäksesi sääaseman nimen.

Klikkaa sitten nähdäksesi säähavainnot ja -ennusteet.

Kartan vaihtaminen: klikkaa mustalla rastilla varustettuja vihreitä pisteitä, niin voit zoomata sisään; viivalla varustettua vihreää pistettä, niin voit zoomata ulos tai vihreitä nuolia, niin pääset viereisille kartoille.


METAR-TAF: